Terminal Aerodrome Forecast
Issued by NWS

Home | Current Version | Previous Version | Text Only | Print | Product List | Glossary On
Versions: 1 2 3 4 5 6 7 8 9 10 11 12 13 14 15 16
000
FTUS43 KBIS 221100
TAFDIK
TAF
KDIK 221140Z 2212/2312 30020G26KT 2SM -SN BKN008 OVC012
      TEMPO 2212/2216 1SM -SN OVC006
     FM221600 33024G30KT 3/4SM -SN BLSN OVC008
     FM230600 34015G25KT 5SM -SN OVC008=

USA.gov is the U.S. government's official web portal to all federal, state and local government web resources and services.